Time;durP1;ratioP1;P1;durP2;ratioP2;P2;SDS_P1;SDS_P2;PMS_P1;PMS_P2;Temp;Humidity;BMP_temperature;BMP_pressure;BME280_temperature;BME280_humidity;BME280_pressure;Samples;Min_cycle;Max_cycle;Signal;HPM_P1;HPM_P2
2022/07/29 00:01:52;;;;;;;;;;;;;;;32.57;22.89;101057.00;4419387;32;19996;-68
2022/07/29 00:04:18;;;;;;;;;;;;;;;32.88;22.50;101060.63;4420684;32;20005;-68
2022/07/29 00:06:43;;;;;;;;;;;;;;;32.92;22.56;101052.28;4420040;32;19985;-68
2022/07/29 00:09:09;;;;;;;;;;;;;;;32.63;22.57;101057.56;4418135;32;21125;-68
2022/07/29 00:11:34;;;;;;;;;;;;;;;32.42;22.85;101056.22;4421929;32;19961;-68
2022/07/29 00:14:00;;;;;;;;;;;;;;;32.30;23.04;101063.78;4416786;32;20326;-68
2022/07/29 00:16:25;;;;;;;;;;;;;;;32.56;22.73;101058.38;4418855;32;20029;-68
2022/07/29 00:18:51;;;;;;;;;;;;;;;32.42;22.74;101053.31;4407027;32;20029;-69
2022/07/29 00:21:16;;;;;;;;;;;;;;;32.22;23.14;101060.91;4418992;32;19962;-69
2022/07/29 00:23:42;;;;;;;;;;;;;;;32.04;23.29;101062.06;4419996;32;19996;-69
2022/07/29 00:26:08;;;;;;;;;;;;;;;31.92;23.38;101057.97;4419945;32;20037;-68
2022/07/29 00:28:33;;;;;;;;;;;;;;;32.15;23.16;101058.00;4415570;32;19993;-68
2022/07/29 00:30:59;;;;;;;;;;;;;;;32.21;23.05;101053.50;4419016;32;20005;-69
2022/07/29 00:33:24;;;;;;;;;;;;;;;32.02;23.21;101055.25;4418965;32;19958;-68
2022/07/29 00:35:50;;;;;;;;;;;;;;;31.86;23.45;101047.88;4421733;32;19953;-68
2022/07/29 00:38:17;;;;;;;;;;;;;;;32.01;23.35;101050.78;4419699;32;20007;-68
2022/07/29 00:40:43;;;;;;;;;;;;;;;32.35;22.97;101049.06;4419773;32;20036;-68
2022/07/29 00:43:09;;;;;;;;;;;;;;;32.28;23.03;101054.88;4419679;32;20048;-68
2022/07/29 00:45:34;;;;;;;;;;;;;;;32.39;22.97;101051.56;4418324;32;19996;-68
2022/07/29 00:48:00;;;;;;;;;;;;;;;32.21;23.15;101056.41;4415972;32;20347;-69
2022/07/29 00:50:26;;;;;;;;;;;;;;;32.45;22.86;101052.16;4418751;32;19973;-68
2022/07/29 00:52:52;;;;;;;;;;;;;;;32.26;23.00;101061.28;4418953;32;19957;-68
2022/07/29 00:55:18;;;;;;;;;;;;;;;32.50;22.82;101060.72;4418095;32;20367;-68
2022/07/29 00:57:44;;;;;;;;;;;;;;;32.33;23.12;101056.78;4419233;32;20019;-69
2022/07/29 01:00:12;;;;;;;;;;;;;;;32.56;22.74;101054.66;4415641;32;19949;-68
2022/07/29 01:02:37;;;;;;;;;;;;;;;32.71;22.69;101056.75;4420059;32;19993;-68
2022/07/29 01:05:04;;;;;;;;;;;;;;;32.27;23.19;101062.81;4416994;32;19968;-69
2022/07/29 01:07:32;;;;;;;;;;;;;;;32.63;22.84;101058.94;4422154;32;19957;-68
2022/07/29 01:09:58;;;;;;;;;;;;;;;32.67;22.77;101057.94;4418611;32;19957;-68
2022/07/29 01:12:25;;;;;;;;;;;;;;;32.64;22.93;101058.31;4422871;32;20001;-69
2022/07/29 01:14:51;;;;;;;;;;;;;;;32.62;22.84;101058.16;4420698;32;20900;-68
2022/07/29 01:17:24;;;;;;;;;;;;;;;32.66;22.94;101049.78;4418916;32;20005;-68
2022/07/29 01:19:57;;;;;;;;;;;;;;;32.22;23.50;101057.19;4417036;32;20266;-68
2022/07/29 01:22:27;;;;;;;;;;;;;;;32.14;23.67;101050.59;4419081;32;19962;-68
2022/07/29 01:25:12;;;;;;;;;;;;;;;32.01;23.82;101053.72;4422173;32;20054;-69
2022/07/29 01:27:48;;;;;;;;;;;;;;;32.25;23.70;101056.03;4419695;32;20360;-68
2022/07/29 01:30:14;;;;;;;;;;;;;;;32.01;24.04;101057.41;4417391;32;20005;-68
2022/07/29 01:32:40;;;;;;;;;;;;;;;31.97;24.16;101059.91;4419039;32;19954;-68
2022/07/29 01:37:50;;;;;;;;;;;;;;;32.48;23.86;101054.69;3947171;32;15854586;-69
2022/07/29 01:43:03;;;;;;;;;;;;;;;32.12;24.46;101062.06;3952146;32;15724607;-69
2022/07/29 01:45:46;;;;;;;;;;;;;;;32.12;24.46;101062.06;4436523;32;19967;-69
2022/07/29 01:48:16;;;;;;;;;;;;;;;31.88;24.65;101053.91;4433763;32;20483;-69
2022/07/29 01:51:01;;;;;;;;;;;;;;;31.61;25.04;101050.53;4433351;32;19958;-69
2022/07/29 01:53:34;;;;;;;;;;;;;;;31.91;24.71;101055.66;4421673;32;20350;-69
2022/07/29 01:56:01;;;;;;;;;;;;;;;31.74;24.87;101050.34;4437624;32;20410;-69
2022/07/29 01:58:28;;;;;;;;;;;;;;;31.50;25.11;101053.03;4430545;32;19980;-69
2022/07/29 02:00:56;;;;;;;;;;;;;;;31.88;24.78;101048.06;4435929;32;20344;-69
2022/07/29 02:03:22;;;;;;;;;;;;;;;31.99;24.75;101048.47;4436070;32;20260;-68
2022/07/29 02:05:48;;;;;;;;;;;;;;;31.97;24.90;101054.09;4434549;32;20288;-68
2022/07/29 02:08:16;;;;;;;;;;;;;;;32.06;24.92;101052.75;4432336;32;20210;-68
2022/07/29 02:10:42;;;;;;;;;;;;;;;31.88;25.10;101057.59;4435984;32;20005;-68
2022/07/29 02:13:09;;;;;;;;;;;;;;;31.93;25.14;101052.91;4434121;32;19967;-68
2022/07/29 02:15:35;;;;;;;;;;;;;;;32.03;25.10;101048.09;4433400;32;20467;-68
2022/07/29 02:18:04;;;;;;;;;;;;;;;32.23;24.69;101042.06;4433400;32;19953;-68
2022/07/29 02:20:30;;;;;;;;;;;;;;;32.18;24.78;101040.09;4434033;32;19946;-68
2022/07/29 02:22:59;;;;;;;;;;;;;;;32.20;24.87;101051.16;4436057;32;19965;-68
2022/07/29 02:25:25;;;;;;;;;;;;;;;32.09;25.04;101040.69;4435442;32;19980;-68
2022/07/29 02:27:51;;;;;;;;;;;;;;;32.28;24.85;101049.81;4435295;32;19961;-68
2022/07/29 02:30:18;;;;;;;;;;;;;;;32.21;24.97;101052.75;4434512;32;19964;-68
2022/07/29 02:32:45;;;;;;;;;;;;;;;32.33;24.83;101045.94;4425385;32;20398;-68
2022/07/29 02:35:12;;;;;;;;;;;;;;;32.20;24.94;101048.25;4434662;32;20442;-68
2022/07/29 02:37:39;;;;;;;;;;;;;;;32.03;25.18;101045.94;4434849;32;20367;-68
2022/07/29 02:40:05;;;;;;;;;;;;;;;32.12;25.21;101056.25;4433736;32;20731;-68
2022/07/29 02:42:33;;;;;;;;;;;;;;;32.22;25.12;101052.16;4431362;32;20531;-69
2022/07/29 02:44:58;;;;;;;;;;;;;;;31.87;25.65;101052.34;4434668;32;20366;-68
2022/07/29 02:50:08;;;;;;;;;;;;;;;32.73;24.82;101065.72;3950672;32;15722544;-67
2022/07/29 02:52:41;;;;;;;;;;;;;;;32.73;24.82;101065.72;4432378;32;20425;-67
2022/07/29 02:55:15;;;;;;;;;;;;;;;32.25;25.04;101071.37;4432344;32;20005;-67
2022/07/29 02:57:43;;;;;;;;;;;;;;;32.14;25.27;101053.50;4433198;32;19961;-67
2022/07/29 03:00:09;;;;;;;;;;;;;;;32.18;25.28;101057.56;4429164;32;20676;-67
2022/07/29 03:02:37;;;;;;;;;;;;;;;31.98;25.56;101055.66;4435992;32;19945;-68
2022/07/29 03:05:03;;;;;;;;;;;;;;;31.80;25.76;101056.75;4435888;32;20645;-67
2022/07/29 03:07:29;;;;;;;;;;;;;;;31.82;25.83;101054.09;4430135;32;19960;-67
2022/07/29 03:09:56;;;;;;;;;;;;;;;32.13;25.53;101055.66;4413394;32;19961;-67
2022/07/29 03:12:22;;;;;;;;;;;;;;;31.92;25.84;101052.16;4433729;32;19953;-67
2022/07/29 03:14:48;;;;;;;;;;;;;;;31.73;26.10;101045.91;4433935;32;20017;-68
2022/07/29 03:17:14;;;;;;;;;;;;;;;31.93;25.92;101056.59;4429716;32;20033;-67
2022/07/29 03:19:39;;;;;;;;;;;;;;;31.75;26.18;101051.13;4430859;32;19957;-67
2022/07/29 03:22:05;;;;;;;;;;;;;;;31.98;26.01;101058.56;4433765;32;20337;-67
2022/07/29 03:24:33;;;;;;;;;;;;;;;31.98;26.03;101057.78;4430440;32;20008;-67
2022/07/29 03:26:59;;;;;;;;;;;;;;;31.83;26.26;101057.75;4432863;32;19965;-67
2022/07/29 03:29:25;;;;;;;;;;;;;;;31.79;26.23;101052.31;4433578;32;20373;-68
2022/07/29 03:31:51;;;;;;;;;;;;;;;31.90;26.21;101046.13;4431058;32;19954;-68
2022/07/29 03:34:16;;;;;;;;;;;;;;;31.85;26.35;101047.09;4432972;32;20049;-68
2022/07/29 03:36:42;;;;;;;;;;;;;;;31.78;26.48;101053.66;4431806;32;19992;-67
2022/07/29 03:39:08;;;;;;;;;;;;;;;31.88;26.26;101059.72;4430556;32;19964;-67
2022/07/29 03:41:35;;;;;;;;;;;;;;;31.91;26.28;101056.41;4431960;32;19964;-67
2022/07/29 03:44:01;;;;;;;;;;;;;;;31.82;26.50;101057.00;4433177;32;19954;-67
2022/07/29 03:46:28;;;;;;;;;;;;;;;31.36;27.24;101052.41;4431999;32;20376;-67
2022/07/29 03:48:56;;;;;;;;;;;;;;;31.66;26.84;101051.72;4428673;32;20523;-67
2022/07/29 03:51:21;;;;;;;;;;;;;;;31.76;26.76;101049.78;4433232;32;20389;-67
2022/07/29 03:53:47;;;;;;;;;;;;;;;31.72;26.67;101055.97;4433503;32;20014;-67
2022/07/29 03:56:16;;;;;;;;;;;;;;;31.53;27.00;101054.78;4432683;32;19964;-67
2022/07/29 03:58:41;;;;;;;;;;;;;;;31.64;26.78;101060.22;4433893;32;19953;-67
2022/07/29 04:01:07;;;;;;;;;;;;;;;31.69;26.86;101062.94;4421862;32;19953;-67
2022/07/29 04:03:33;;;;;;;;;;;;;;;31.57;26.84;101058.84;4425376;32;19966;-67
2022/07/29 04:06:01;;;;;;;;;;;;;;;31.47;27.20;101051.28;4420856;32;20409;-68
2022/07/29 04:08:27;;;;;;;;;;;;;;;31.52;27.11;101050.31;4418576;32;20001;-67
2022/07/29 04:10:52;;;;;;;;;;;;;;;31.59;26.85;101044.50;4419753;32;19989;-67
2022/07/29 04:13:19;;;;;;;;;;;;;;;31.68;26.93;101043.94;4423556;32;19968;-67
2022/07/29 04:15:45;;;;;;;;;;;;;;;31.65;26.86;101053.84;4421219;32;19957;-67
2022/07/29 04:18:11;;;;;;;;;;;;;;;31.70;26.89;101055.78;4419946;32;20033;-67
2022/07/29 04:20:37;;;;;;;;;;;;;;;31.46;27.31;101056.31;4417592;32;20080;-68
2022/07/29 04:23:02;;;;;;;;;;;;;;;31.50;27.09;101056.69;4423331;32;19972;-67
2022/07/29 04:25:27;;;;;;;;;;;;;;;31.45;27.21;101051.84;4422272;32;20321;-68
2022/07/29 04:28:00;;;;;;;;;;;;;;;31.49;27.21;101060.19;4419533;32;20288;-67
2022/07/29 04:30:26;;;;;;;;;;;;;;;31.64;27.04;101055.19;4421859;32;20029;-67
2022/07/29 04:32:52;;;;;;;;;;;;;;;31.68;27.02;101061.41;4418329;32;20111;-67
2022/07/29 04:35:19;;;;;;;;;;;;;;;31.75;26.98;101059.88;4420380;32;19997;-67
2022/07/29 04:37:45;;;;;;;;;;;;;;;31.72;27.12;101058.13;4421573;32;20011;-67
2022/07/29 04:40:11;;;;;;;;;;;;;;;31.66;27.08;101067.00;4418792;32;19953;-67
2022/07/29 04:42:38;;;;;;;;;;;;;;;31.67;27.22;101061.97;4421058;32;19961;-67
2022/07/29 04:45:04;;;;;;;;;;;;;;;31.74;26.96;101056.19;4423030;32;20020;-67
2022/07/29 04:47:29;;;;;;;;;;;;;;;31.55;27.32;101058.66;4424056;32;19993;-67
2022/07/29 04:49:56;;;;;;;;;;;;;;;31.27;27.62;101055.84;4418368;32;20257;-67
2022/07/29 04:52:21;;;;;;;;;;;;;;;31.37;27.49;101056.88;4419542;32;19950;-68
2022/07/29 04:54:47;;;;;;;;;;;;;;;31.65;27.19;101062.56;4416937;32;20351;-67
2022/07/29 04:57:12;;;;;;;;;;;;;;;31.34;27.50;101063.84;4418286;32;19954;-67
2022/07/29 04:59:38;;;;;;;;;;;;;;;30.81;28.31;101059.91;4421552;32;20204;-67
2022/07/29 05:02:04;;;;;;;;;;;;;;;31.25;27.76;101057.75;4424060;32;19949;-67
2022/07/29 05:04:30;;;;;;;;;;;;;;;31.19;27.70;101066.66;4422512;32;20085;-67
2022/07/29 05:06:55;;;;;;;;;;;;;;;31.33;27.64;101068.09;4420788;32;20000;-67
2022/07/29 05:09:21;;;;;;;;;;;;;;;30.98;28.04;101068.88;4418097;32;20000;-67
2022/07/29 05:11:46;;;;;;;;;;;;;;;31.23;27.77;101069.97;4422298;32;19995;-67
2022/07/29 05:14:11;;;;;;;;;;;;;;;31.27;27.88;101078.31;4418760;32;19994;-67
2022/07/29 05:16:39;;;;;;;;;;;;;;;30.71;28.47;101076.28;4422676;32;20339;-67
2022/07/29 05:19:04;;;;;;;;;;;;;;;30.95;28.31;101078.00;4418217;32;19973;-67
2022/07/29 05:21:30;;;;;;;;;;;;;;;31.21;27.86;101074.81;4420661;32;20007;-67
2022/07/29 05:23:55;;;;;;;;;;;;;;;31.11;28.11;101076.72;4415514;32;19971;-67
2022/07/29 05:26:20;;;;;;;;;;;;;;;30.97;28.29;101086.91;4421680;32;19989;-67
2022/07/29 05:28:46;;;;;;;;;;;;;;;31.26;28.06;101077.53;4420580;32;20327;-67
2022/07/29 05:31:11;;;;;;;;;;;;;;;31.57;27.37;101087.94;4419993;32;19972;-67
2022/07/29 05:33:37;;;;;;;;;;;;;;;31.44;27.84;101087.34;4422084;32;20338;-67
2022/07/29 05:36:05;;;;;;;;;;;;;;;31.52;27.67;101088.91;4419368;32;20173;-67
2022/07/29 05:38:30;;;;;;;;;;;;;;;31.55;27.58;101084.84;4419666;32;19997;-67
2022/07/29 05:40:57;;;;;;;;;;;;;;;31.49;27.77;101090.06;4419111;32;20034;-67
2022/07/29 05:43:23;;;;;;;;;;;;;;;31.66;27.55;101084.47;4421619;32;19957;-67
2022/07/29 05:45:48;;;;;;;;;;;;;;;31.70;27.54;101096.53;4416363;32;20285;-67
2022/07/29 05:48:14;;;;;;;;;;;;;;;31.55;27.64;101096.50;4418914;32;19961;-67
2022/07/29 05:50:40;;;;;;;;;;;;;;;31.66;27.65;101101.19;4416800;32;19969;-67
2022/07/29 05:53:05;;;;;;;;;;;;;;;31.84;27.37;101100.09;4416935;32;20401;-67
2022/07/29 05:55:31;;;;;;;;;;;;;;;31.91;27.34;101108.03;4421239;32;19961;-68
2022/07/29 05:57:57;;;;;;;;;;;;;;;31.83;27.51;101110.94;4417671;32;20359;-68
2022/07/29 06:00:22;;;;;;;;;;;;;;;32.03;27.17;101107.06;4417768;32;20345;-68
2022/07/29 06:02:48;;;;;;;;;;;;;;;32.06;27.18;101110.97;4419122;32;19989;-67
2022/07/29 06:05:14;;;;;;;;;;;;;;;32.19;27.04;101110.78;4419781;32;19993;-68
2022/07/29 06:07:40;;;;;;;;;;;;;;;32.09;27.02;101112.72;4419422;32;19993;-67
2022/07/29 06:10:06;;;;;;;;;;;;;;;32.02;27.38;101104.75;4418356;32;20313;-67
2022/07/29 06:12:32;;;;;;;;;;;;;;;31.84;27.57;101115.41;4422170;32;20003;-67
2022/07/29 06:14:58;;;;;;;;;;;;;;;32.10;27.25;101117.19;4422329;32;19957;-67
2022/07/29 06:17:24;;;;;;;;;;;;;;;32.01;27.68;101111.94;4416774;32;19999;-67
2022/07/29 06:19:49;;;;;;;;;;;;;;;31.94;28.40;101121.44;4416598;32;20060;-67
2022/07/29 06:22:16;;;;;;;;;;;;;;;31.95;28.36;101109.22;4418256;32;20363;-67
2022/07/29 06:24:43;;;;;;;;;;;;;;;31.70;29.45;101116.13;4417502;32;19993;-67
2022/07/29 06:27:10;;;;;;;;;;;;;;;31.57;29.36;101119.94;4418702;32;20381;-67
2022/07/29 06:29:36;;;;;;;;;;;;;;;31.45;30.03;101112.94;4416049;32;19997;-67
2022/07/29 06:32:02;;;;;;;;;;;;;;;31.34;30.61;101124.91;4415657;32;19949;-67
2022/07/29 06:34:27;;;;;;;;;;;;;;;31.43;30.44;101121.47;4422831;32;19961;-67
2022/07/29 06:36:53;;;;;;;;;;;;;;;31.50;30.00;101122.84;4414513;32;19968;-67
2022/07/29 06:39:18;;;;;;;;;;;;;;;31.44;29.73;101125.91;4423418;32;19965;-67
2022/07/29 06:41:49;;;;;;;;;;;;;;;31.16;30.30;101120.16;4418892;32;20388;-68
2022/07/29 06:44:15;;;;;;;;;;;;;;;31.19;29.86;101121.91;4422203;32;19953;-67
2022/07/29 06:46:41;;;;;;;;;;;;;;;31.17;29.63;101127.50;4417616;32;20325;-67
2022/07/29 06:49:06;;;;;;;;;;;;;;;31.24;29.75;101126.78;4415431;32;19985;-67
2022/07/29 06:51:32;;;;;;;;;;;;;;;31.31;29.34;101126.06;4418904;32;20056;-67
2022/07/29 06:53:58;;;;;;;;;;;;;;;31.41;29.39;101129.97;4421024;32;19957;-67
2022/07/29 06:56:25;;;;;;;;;;;;;;;31.52;29.31;101123.81;4418931;32;19996;-67
2022/07/29 06:58:50;;;;;;;;;;;;;;;31.46;29.35;101125.34;4417800;32;20733;-67
2022/07/29 07:01:15;;;;;;;;;;;;;;;31.48;29.72;101128.47;4416815;32;20053;-67
2022/07/29 07:03:41;;;;;;;;;;;;;;;31.53;29.66;101131.19;4419507;32;20052;-67
2022/07/29 07:06:07;;;;;;;;;;;;;;;31.67;28.95;101126.00;4417205;32;20036;-67
2022/07/29 07:08:32;;;;;;;;;;;;;;;31.56;29.15;101118.41;4416238;32;20182;-67
2022/07/29 07:10:58;;;;;;;;;;;;;;;31.81;29.18;101125.28;4420680;32;20001;-67
2022/07/29 07:13:23;;;;;;;;;;;;;;;31.78;29.55;101129.31;4419506;32;20004;-67
2022/07/29 07:15:50;;;;;;;;;;;;;;;31.95;28.72;101125.91;4415451;32;19962;-67
2022/07/29 07:18:16;;;;;;;;;;;;;;;31.98;28.74;101127.66;4417240;32;20011;-67
2022/07/29 07:20:42;;;;;;;;;;;;;;;31.82;29.03;101123.94;4418760;32;20017;-67
2022/07/29 07:23:07;;;;;;;;;;;;;;;31.93;28.45;101135.22;4416556;32;19997;-68
2022/07/29 07:25:33;;;;;;;;;;;;;;;32.10;28.39;101144.19;4418679;32;20390;-67
2022/07/29 07:27:58;;;;;;;;;;;;;;;32.05;28.74;101135.63;4418852;32;19953;-67
2022/07/29 07:30:24;;;;;;;;;;;;;;;32.24;28.61;101142.63;4416882;32;20016;-67
2022/07/29 07:32:49;;;;;;;;;;;;;;;32.26;28.44;101137.00;4417023;32;20398;-67
2022/07/29 07:35:15;;;;;;;;;;;;;;;32.14;28.66;101138.75;4417971;32;19966;-67
2022/07/29 07:37:41;;;;;;;;;;;;;;;32.31;28.67;101141.84;4418638;32;20032;-67
2022/07/29 07:40:08;;;;;;;;;;;;;;;32.28;28.77;101142.25;4423327;32;20534;-67
2022/07/29 07:42:33;;;;;;;;;;;;;;;32.26;28.49;101151.56;4417920;32;20394;-67
2022/07/29 07:44:59;;;;;;;;;;;;;;;32.14;28.23;101146.69;4424046;32;19968;-68
2022/07/29 07:47:24;;;;;;;;;;;;;;;32.29;28.84;101150.41;4421552;32;19996;-68
2022/07/29 07:49:50;;;;;;;;;;;;;;;32.43;28.17;101148.87;4422096;32;20448;-68
2022/07/29 07:52:17;;;;;;;;;;;;;;;32.44;28.53;101152.56;4418888;32;20007;-67
2022/07/29 07:54:43;;;;;;;;;;;;;;;32.23;29.27;101146.91;4419300;32;20020;-67
2022/07/29 07:57:09;;;;;;;;;;;;;;;32.57;28.32;101150.25;4419907;32;19994;-67
2022/07/29 07:59:34;;;;;;;;;;;;;;;32.82;28.24;101153.31;4420471;32;19960;-67
2022/07/29 08:02:00;;;;;;;;;;;;;;;32.79;27.83;101154.50;4422967;32;19949;-67
2022/07/29 08:04:26;;;;;;;;;;;;;;;32.89;27.97;101155.50;4423414;32;20061;-67
2022/07/29 08:06:53;;;;;;;;;;;;;;;32.85;27.78;101157.97;4417598;32;20001;-67
2022/07/29 08:09:20;;;;;;;;;;;;;;;32.92;27.62;101156.47;4421749;32;19956;-67
2022/07/29 08:11:45;;;;;;;;;;;;;;;33.18;27.10;101148.03;4418273;32;19961;-67
2022/07/29 08:14:11;;;;;;;;;;;;;;;33.50;27.13;101145.19;4424842;32;20347;-67
2022/07/29 08:16:36;;;;;;;;;;;;;;;33.74;27.01;101144.50;4417664;32;20438;-67
2022/07/29 08:19:02;;;;;;;;;;;;;;;34.00;26.30;101149.84;4421104;32;19988;-67
2022/07/29 08:21:27;;;;;;;;;;;;;;;34.18;25.86;101144.84;4420575;32;19969;-67
2022/07/29 08:24:42;;;;;;;;;;;;;;;34.33;25.93;101150.56;4424667;32;19992;-67
2022/07/29 08:26:39;;;;;;;;;;;;;;;34.36;25.41;101149.41;4418934;32;20030;-67
2022/07/29 08:29:04;;;;;;;;;;;;;;;34.30;25.90;101143.75;4419876;32;20319;-67
2022/07/29 08:31:30;;;;;;;;;;;;;;;34.42;25.50;101141.19;4421213;32;20016;-67
2022/07/29 08:33:56;;;;;;;;;;;;;;;34.16;25.85;101148.38;4419348;32;20043;-67
2022/07/29 08:36:21;;;;;;;;;;;;;;;34.16;25.58;101156.34;4418279;32;20324;-67
2022/07/29 08:38:49;;;;;;;;;;;;;;;34.01;26.02;101151.38;4416156;32;20016;-67
2022/07/29 08:41:14;;;;;;;;;;;;;;;34.08;26.07;101146.88;4420441;32;19949;-67
2022/07/29 08:43:40;;;;;;;;;;;;;;;33.89;26.49;101152.41;4419787;32;20330;-67
2022/07/29 08:46:06;;;;;;;;;;;;;;;34.06;26.29;101152.53;4417852;32;19957;-67
2022/07/29 08:48:32;;;;;;;;;;;;;;;34.12;26.20;101145.06;4419597;32;20622;-67
2022/07/29 08:50:57;;;;;;;;;;;;;;;34.21;26.21;101149.50;4415503;32;20020;-67
2022/07/29 08:53:24;;;;;;;;;;;;;;;34.26;25.89;101148.47;4423220;32;19949;-68
2022/07/29 08:55:50;;;;;;;;;;;;;;;34.09;25.83;101145.50;4421211;32;20093;-67
2022/07/29 08:58:16;;;;;;;;;;;;;;;34.21;25.78;101143.66;4414120;32;20005;-67
2022/07/29 09:00:42;;;;;;;;;;;;;;;34.22;25.94;101148.13;4417212;32;19973;-68
2022/07/29 09:03:09;;;;;;;;;;;;;;;34.42;25.59;101141.94;4422920;32;19971;-67
2022/07/29 09:05:34;;;;;;;;;;;;;;;34.36;25.53;101146.50;4420778;32;20004;-67
2022/07/29 09:08:01;;;;;;;;;;;;;;;34.21;25.76;101140.72;4421596;32;19981;-67
2022/07/29 09:10:27;;;;;;;;;;;;;;;34.18;25.71;101139.75;4418272;32;20041;-67
2022/07/29 09:12:54;;;;;;;;;;;;;;;34.49;25.62;101146.19;4418403;32;20402;-67
2022/07/29 09:15:19;;;;;;;;;;;;;;;34.60;25.44;101136.91;4418170;32;19993;-67
2022/07/29 09:17:46;;;;;;;;;;;;;;;34.50;25.71;101153.56;4417404;32;20354;-67
2022/07/29 09:20:13;;;;;;;;;;;;;;;34.38;26.90;101142.97;4415864;32;19981;-67
2022/07/29 09:22:38;;;;;;;;;;;;;;;34.68;25.97;101140.53;4417983;32;20275;-67
2022/07/29 09:25:04;;;;;;;;;;;;;;;34.36;27.25;101137.72;4419831;32;19949;-67
2022/07/29 09:27:29;;;;;;;;;;;;;;;34.30;26.94;101143.00;4423847;32;19985;-67
2022/07/29 09:29:57;;;;;;;;;;;;;;;34.46;26.64;101134.91;4417450;32;19965;-67
2022/07/29 09:32:22;;;;;;;;;;;;;;;34.82;25.62;101135.94;4422878;32;19961;-67
2022/07/29 09:34:48;;;;;;;;;;;;;;;35.28;25.03;101139.16;4418476;32;20437;-67
2022/07/29 09:37:25;;;;;;;;;;;;;;;35.24;24.80;101144.63;4420560;32;19961;-67
2022/07/29 09:39:52;;;;;;;;;;;;;;;35.67;24.44;101143.94;4420261;32;20303;-67
2022/07/29 09:42:27;;;;;;;;;;;;;;;35.79;23.95;101142.00;4419288;32;19980;-67
2022/07/29 09:44:53;;;;;;;;;;;;;;;35.78;23.97;101146.31;4419868;32;19997;-68
2022/07/29 09:47:21;;;;;;;;;;;;;;;35.68;24.23;101142.56;4418722;32;19949;-67
2022/07/29 09:52:26;;;;;;;;;;;;;;;36.58;23.43;101147.06;3969732;31;15717200;-68
2022/07/29 09:54:53;;;;;;;;;;;;;;;36.58;23.43;101147.06;4431197;32;19986;-68
2022/07/29 09:57:26;;;;;;;;;;;;;;;36.91;22.98;101142.37;4431924;32;20005;-68
2022/07/29 09:59:56;;;;;;;;;;;;;;;37.15;22.48;101141.31;4431512;32;20026;-68
2022/07/29 10:02:21;;;;;;;;;;;;;;;37.59;21.92;101143.94;4433042;32;20013;-68
2022/07/29 10:04:47;;;;;;;;;;;;;;;38.13;21.38;101145.13;4431815;32;19961;-68
2022/07/29 10:07:13;;;;;;;;;;;;;;;38.24;20.91;101143.66;4430239;32;20020;-68
2022/07/29 10:09:38;;;;;;;;;;;;;;;38.61;20.85;101145.69;4430355;32;20001;-68
2022/07/29 10:12:05;;;;;;;;;;;;;;;38.36;20.88;101156.31;4431413;32;20000;-68
2022/07/29 10:14:32;;;;;;;;;;;;;;;38.51;20.43;101158.87;4429722;32;19968;-68
2022/07/29 10:16:59;;;;;;;;;;;;;;;38.55;20.42;101151.13;4431551;32;20316;-68
2022/07/29 10:19:25;;;;;;;;;;;;;;;38.57;20.04;101150.50;4430466;32;20033;-68
2022/07/29 10:21:51;;;;;;;;;;;;;;;38.68;20.24;101141.00;4429572;32;20220;-68
2022/07/29 10:24:17;;;;;;;;;;;;;;;38.05;20.64;101150.38;4432334;32;19996;-68
2022/07/29 10:26:44;;;;;;;;;;;;;;;38.21;20.43;101154.50;4431107;32;20402;-68
2022/07/29 10:29:10;;;;;;;;;;;;;;;38.05;20.51;101155.47;4430477;32;20015;-68
2022/07/29 10:31:43;;;;;;;;;;;;;;;37.66;20.78;101149.69;4430898;32;19973;-68
2022/07/29 10:37:07;;;;;;;;;;;;;;;38.77;20.36;101149.75;3950441;32;15721387;-68
2022/07/29 10:39:44;;;;;;;;;;;;;;;38.77;20.36;101149.75;4424930;32;19985;-68
2022/07/29 10:44:46;;;;;;;;;;;;;;;40.00;18.92;101156.03;3952580;32;15716323;-67
2022/07/29 10:47:20;;;;;;;;;;;;;;;40.00;18.92;101156.03;4434505;32;20385;-69
2022/07/29 10:50:06;;;;;;;;;;;;;;;39.62;19.01;101148.34;4434416;32;20012;-68
2022/07/29 10:52:56;;;;;;;;;;;;;;;40.10;18.64;101144.12;4436574;32;19997;-69
2022/07/29 10:55:42;;;;;;;;;;;;;;;39.45;19.54;101144.97;4434011;32;19953;-69
2022/07/29 10:58:13;;;;;;;;;;;;;;;39.59;19.28;101140.78;4434004;32;19991;-68
2022/07/29 11:00:39;;;;;;;;;;;;;;;39.14;19.55;101150.91;4434529;32;20165;-68
2022/07/29 11:03:05;;;;;;;;;;;;;;;39.45;19.32;101145.72;4435100;32;20341;-67
2022/07/29 11:05:50;;;;;;;;;;;;;;;39.27;19.14;101135.63;4437661;32;20368;-67
2022/07/29 11:08:17;;;;;;;;;;;;;;;39.69;18.76;101141.44;4422864;32;19971;-67
2022/07/29 11:10:43;;;;;;;;;;;;;;;39.61;18.86;101140.91;4436465;32;19958;-69
2022/07/29 11:13:09;;;;;;;;;;;;;;;39.73;18.88;101138.00;4435922;32;20394;-68
2022/07/29 11:15:54;;;;;;;;;;;;;;;39.04;19.51;101143.56;4435043;32;20024;-68
2022/07/29 11:18:20;;;;;;;;;;;;;;;38.65;19.59;101145.97;4434721;32;20535;-68
2022/07/29 11:20:48;;;;;;;;;;;;;;;38.02;20.24;101142.78;4432831;32;20216;-67
2022/07/29 11:23:31;;;;;;;;;;;;;;;38.05;20.33;101149.59;4435424;32;19957;-67
2022/07/29 11:29:05;;;;;;;;;;;;;;;38.15;19.99;101159.94;3951711;32;15724575;-68
2022/07/29 11:31:32;;;;;;;;;;;;;;;38.15;19.99;101159.94;4426264;32;19957;-69
2022/07/29 11:34:19;;;;;;;;;;;;;;;37.25;20.84;101153.88;4427016;32;20001;-68
2022/07/29 11:37:04;;;;;;;;;;;;;;;37.06;21.31;101150.88;4428108;32;19992;-67
2022/07/29 11:39:29;;;;;;;;;;;;;;;37.40;20.93;101152.78;4428230;32;20236;-68
2022/07/29 11:42:15;;;;;;;;;;;;;;;37.11;21.20;101152.75;4427572;32;19953;-68
2022/07/29 11:45:00;;;;;;;;;;;;;;;37.00;21.30;101146.72;4430478;32;20872;-68
2022/07/29 11:47:27;;;;;;;;;;;;;;;36.96;21.07;101144.22;4425109;32;19976;-68
2022/07/29 11:49:53;;;;;;;;;;;;;;;37.26;21.42;101139.94;4427167;32;19954;-68
2022/07/29 11:52:19;;;;;;;;;;;;;;;37.49;21.36;101141.00;4430460;32;20257;-69
2022/07/29 11:54:47;;;;;;;;;;;;;;;37.84;21.91;101144.38;4427393;32;19960;-68
2022/07/29 11:57:12;;;;;;;;;;;;;;;38.02;21.29;101145.72;4428856;32;20418;-68
2022/07/29 11:59:41;;;;;;;;;;;;;;;38.26;20.47;101138.72;4424083;32;20179;-68
2022/07/29 12:02:07;;;;;;;;;;;;;;;38.24;20.01;101140.72;4430265;32;19982;-68
2022/07/29 12:04:32;;;;;;;;;;;;;;;37.92;20.06;101136.94;4429170;32;19949;-68
2022/07/29 12:06:58;;;;;;;;;;;;;;;38.37;19.85;101137.28;4430511;32;20263;-68
2022/07/29 12:09:23;;;;;;;;;;;;;;;38.96;19.49;101134.94;4427208;32;19950;-67
2022/07/29 12:11:49;;;;;;;;;;;;;;;39.76;18.55;101135.97;4429677;32;20322;-67
2022/07/29 12:14:31;;;;;;;;;;;;;;;40.70;18.00;101142.16;4426228;32;19990;-69
2022/07/29 12:16:57;;;;;;;;;;;;;;;41.30;17.11;101137.78;4424856;32;20092;-68
2022/07/29 12:19:23;;;;;;;;;;;;;;;42.32;16.39;101140.06;4425753;32;20001;-68
2022/07/29 12:21:50;;;;;;;;;;;;;;;42.64;16.07;101135.91;4426800;32;19953;-68
2022/07/29 12:24:16;;;;;;;;;;;;;;;42.69;15.69;101136.94;4429026;32;20328;-68
2022/07/29 12:26:58;;;;;;;;;;;;;;;42.59;15.94;101130.44;4429433;32;20004;-68
2022/07/29 12:29:24;;;;;;;;;;;;;;;42.85;15.69;101126.72;4423449;32;19993;-68
2022/07/29 12:31:54;;;;;;;;;;;;;;;42.73;15.66;101120.16;4426284;32;20439;-68
2022/07/29 12:34:22;;;;;;;;;;;;;;;42.63;15.64;101127.69;4426290;32;20731;-69
2022/07/29 12:36:48;;;;;;;;;;;;;;;42.75;15.50;101119.47;4427563;32;19977;-68
2022/07/29 12:39:14;;;;;;;;;;;;;;;42.95;15.50;101111.69;4420856;32;19990;-68
2022/07/29 12:41:40;;;;;;;;;;;;;;;43.58;14.92;101115.72;4417791;32;20009;-68
2022/07/29 12:44:05;;;;;;;;;;;;;;;43.42;14.79;101120.78;4415459;32;20301;-68
2022/07/29 12:46:31;;;;;;;;;;;;;;;42.87;15.11;101126.06;4418273;32;20053;-68
2022/07/29 12:48:58;;;;;;;;;;;;;;;43.00;15.12;101126.03;4416625;32;19976;-68
2022/07/29 12:51:40;;;;;;;;;;;;;;;42.63;15.39;101116.62;4416616;32;20283;-69
2022/07/29 12:56:43;;;;;;;;;;;;;;;41.11;16.79;101114.47;3950746;32;15747462;-68
2022/07/29 12:59:17;;;;;;;;;;;;;;;41.11;16.79;101114.47;4431285;32;20357;-68